sensor_id;sensor_type;location;lat;lon;timestamp;pressure;altitude;pressure_sealevel;temperature;humidity
71956;BME280;59829;50.562;6.258;2023-09-18T00:02:35;95001.25;;;19.62;100.00
71956;BME280;59829;50.562;6.258;2023-09-18T00:12:35;94979.25;;;19.57;100.00
71956;BME280;59829;50.562;6.258;2023-09-18T00:22:35;94970.22;;;19.53;100.00
71956;BME280;59829;50.562;6.258;2023-09-18T00:32:36;94972.44;;;19.56;100.00
71956;BME280;59829;50.562;6.258;2023-09-18T00:42:36;94979.66;;;19.54;100.00
71956;BME280;59829;50.562;6.258;2023-09-18T00:52:37;94961.66;;;19.60;100.00
71956;BME280;59829;50.562;6.258;2023-09-18T01:02:38;94947.66;;;19.61;100.00
71956;BME280;59829;50.562;6.258;2023-09-18T01:12:47;94937.28;;;19.61;100.00
71956;BME280;59829;50.562;6.258;2023-09-18T01:22:52;94910.09;;;19.56;100.00
71956;BME280;59829;50.562;6.258;2023-09-18T01:32:54;94911.09;;;19.55;100.00
71956;BME280;59829;50.562;6.258;2023-09-18T01:42:56;94940.44;;;19.49;100.00
71956;BME280;59829;50.562;6.258;2023-09-18T01:52:58;94944.50;;;19.72;100.00
71956;BME280;59829;50.562;6.258;2023-09-18T02:02:59;94932.91;;;19.87;100.00
71956;BME280;59829;50.562;6.258;2023-09-18T02:12:59;94885.91;;;19.89;100.00
71956;BME280;59829;50.562;6.258;2023-09-18T02:22:59;94880.50;;;19.91;100.00
71956;BME280;59829;50.562;6.258;2023-09-18T02:33:00;94870.91;;;19.91;100.00
71956;BME280;59829;50.562;6.258;2023-09-18T02:43:03;94846.94;;;19.89;100.00
71956;BME280;59829;50.562;6.258;2023-09-18T02:53:05;94822.16;;;19.80;100.00
71956;BME280;59829;50.562;6.258;2023-09-18T03:03:06;94812.34;;;19.75;100.00
71956;BME280;59829;50.562;6.258;2023-09-18T03:13:09;94793.78;;;19.72;100.00
71956;BME280;59829;50.562;6.258;2023-09-18T03:23:09;94813.97;;;19.70;100.00
71956;BME280;59829;50.562;6.258;2023-09-18T03:33:10;94806.59;;;19.67;100.00
71956;BME280;59829;50.562;6.258;2023-09-18T03:43:11;94819.00;;;19.65;100.00
71956;BME280;59829;50.562;6.258;2023-09-18T03:53:12;94800.59;;;19.60;100.00
71956;BME280;59829;50.562;6.258;2023-09-18T04:03:12;94760.66;;;19.54;100.00
71956;BME280;59829;50.562;6.258;2023-09-18T04:13:13;94750.25;;;19.47;100.00
71956;BME280;59829;50.562;6.258;2023-09-18T04:23:24;94748.66;;;19.40;100.00
71956;BME280;59829;50.562;6.258;2023-09-18T04:33:25;94747.06;;;19.32;100.00
71956;BME280;59829;50.562;6.258;2023-09-18T04:43:26;94775.03;;;19.30;100.00
71956;BME280;59829;50.562;6.258;2023-09-18T04:53:30;94734.28;;;19.24;100.00
71956;BME280;59829;50.562;6.258;2023-09-18T05:03:30;94771.63;;;19.23;100.00
71956;BME280;59829;50.562;6.258;2023-09-18T05:13:31;94789.00;;;19.22;100.00
71956;BME280;59829;50.562;6.258;2023-09-18T05:23:31;94817.38;;;19.24;100.00
71956;BME280;59829;50.562;6.258;2023-09-18T05:33:32;94803.78;;;19.22;100.00
71956;BME280;59829;50.562;6.258;2023-09-18T05:43:32;94826.16;;;19.16;100.00
71956;BME280;59829;50.562;6.258;2023-09-18T05:53:32;94825.75;;;19.13;100.00
71956;BME280;59829;50.562;6.258;2023-09-18T06:03:34;94817.75;;;19.08;100.00
71956;BME280;59829;50.562;6.258;2023-09-18T06:13:35;94826.53;;;19.07;100.00
71956;BME280;59829;50.562;6.258;2023-09-18T06:23:36;94831.34;;;19.10;100.00
71956;BME280;59829;50.562;6.258;2023-09-18T06:33:37;94830.97;;;19.13;100.00
71956;BME280;59829;50.562;6.258;2023-09-18T06:43:38;94837.16;;;19.12;100.00
71956;BME280;59829;50.562;6.258;2023-09-18T06:53:38;94855.31;;;19.12;100.00
71956;BME280;59829;50.562;6.258;2023-09-18T07:03:39;94863.09;;;19.12;100.00
71956;BME280;59829;50.562;6.258;2023-09-18T07:13:40;94860.88;;;19.09;100.00
71956;BME280;59829;50.562;6.258;2023-09-18T07:23:41;94869.28;;;19.04;100.00
71956;BME280;59829;50.562;6.258;2023-09-18T07:33:41;94891.66;;;19.12;100.00
71956;BME280;59829;50.562;6.258;2023-09-18T07:43:42;94886.88;;;19.15;100.00
71956;BME280;59829;50.562;6.258;2023-09-18T07:53:43;94916.03;;;19.24;100.00
71956;BME280;59829;50.562;6.258;2023-09-18T08:03:43;94936.44;;;19.34;100.00
71956;BME280;59829;50.562;6.258;2023-09-18T08:13:43;94932.03;;;19.34;100.00
71956;BME280;59829;50.562;6.258;2023-09-18T08:23:44;94933.22;;;19.38;100.00
71956;BME280;59829;50.562;6.258;2023-09-18T08:33:45;94954.84;;;19.45;100.00
71956;BME280;59829;50.562;6.258;2023-09-18T08:43:45;94953.63;;;19.48;100.00
71956;BME280;59829;50.562;6.258;2023-09-18T08:53:48;94946.25;;;19.51;100.00
71956;BME280;59829;50.562;6.258;2023-09-18T09:03:48;94949.66;;;19.52;100.00
71956;BME280;59829;50.562;6.258;2023-09-18T09:14:08;94967.22;;;19.50;100.00
71956;BME280;59829;50.562;6.258;2023-09-18T09:24:11;94956.44;;;19.53;100.00
71956;BME280;59829;50.562;6.258;2023-09-18T09:34:25;94935.88;;;19.58;100.00
71956;BME280;59829;50.562;6.258;2023-09-18T09:44:33;94940.88;;;19.73;100.00
71956;BME280;59829;50.562;6.258;2023-09-18T09:54:34;94932.69;;;19.89;100.00
71956;BME280;59829;50.562;6.258;2023-09-18T10:04:37;94932.50;;;19.97;100.00
71956;BME280;59829;50.562;6.258;2023-09-18T10:14:38;94936.66;;;20.11;100.00
71956;BME280;59829;50.562;6.258;2023-09-18T10:24:40;94940.06;;;20.18;100.00
71956;BME280;59829;50.562;6.258;2023-09-18T10:34:44;94968.50;;;20.13;100.00
71956;BME280;59829;50.562;6.258;2023-09-18T10:44:45;94963.09;;;20.15;100.00
71956;BME280;59829;50.562;6.258;2023-09-18T10:54:46;94959.66;;;20.34;100.00
71956;BME280;59829;50.562;6.258;2023-09-18T11:04:47;94962.84;;;20.50;100.00
71956;BME280;59829;50.562;6.258;2023-09-18T11:14:58;94958.03;;;20.46;99.04
71956;BME280;59829;50.562;6.258;2023-09-18T11:35:54;94961.75;;;20.77;96.76
71956;BME280;59829;50.562;6.258;2023-09-18T11:45:58;94953.31;;;20.82;94.86
71956;BME280;59829;50.562;6.258;2023-09-18T11:56:00;94951.56;;;20.75;93.45
71956;BME280;59829;50.562;6.258;2023-09-18T12:06:03;94953.16;;;20.76;92.32
71956;BME280;59829;50.562;6.258;2023-09-18T12:16:09;94940.72;;;20.78;91.09
71956;BME280;59829;50.562;6.258;2023-09-18T12:26:22;94922.63;;;20.97;90.66
71956;BME280;59829;50.562;6.258;2023-09-18T12:36:25;94928.91;;;21.27;90.07
71956;BME280;59829;50.562;6.258;2023-09-18T12:46:26;94923.47;;;21.35;88.54
71956;BME280;59829;50.562;6.258;2023-09-18T12:56:26;94913.63;;;21.38;87.07
71956;BME280;59829;50.562;6.258;2023-09-18T13:06:27;94924.75;;;21.51;85.57
71956;BME280;59829;50.562;6.258;2023-09-18T13:16:27;94908.31;;;21.51;83.98
71956;BME280;59829;50.562;6.258;2023-09-18T13:26:27;94899.91;;;21.49;82.54
71956;BME280;59829;50.562;6.258;2023-09-18T13:36:29;94889.34;;;21.44;81.44
71956;BME280;59829;50.562;6.258;2023-09-18T13:46:29;94891.00;;;21.63;80.76
71956;BME280;59829;50.562;6.258;2023-09-18T13:56:30;94887.25;;;21.77;80.03
71956;BME280;59829;50.562;6.258;2023-09-18T14:06:32;94869.06;;;21.95;79.19
71956;BME280;59829;50.562;6.258;2023-09-18T14:16:32;94879.84;;;21.99;77.98
71956;BME280;59829;50.562;6.258;2023-09-18T14:26:33;94865.94;;;21.87;76.66
71956;BME280;59829;50.562;6.258;2023-09-18T14:36:40;94857.56;;;21.78;76.12
71956;BME280;59829;50.562;6.258;2023-09-18T14:46:40;94853.53;;;21.82;75.30
71956;BME280;59829;50.562;6.258;2023-09-18T14:56:41;94838.91;;;21.81;74.40
71956;BME280;59829;50.562;6.258;2023-09-18T15:06:42;94825.22;;;21.86;73.79
71956;BME280;59829;50.562;6.258;2023-09-18T15:16:42;94817.81;;;21.83;73.32
71956;BME280;59829;50.562;6.258;2023-09-18T15:26:42;94802.53;;;21.86;72.88
71956;BME280;59829;50.562;6.258;2023-09-18T15:36:43;94804.56;;;22.03;72.53
71956;BME280;59829;50.562;6.258;2023-09-18T15:46:43;94808.53;;;22.12;72.22
71956;BME280;59829;50.562;6.258;2023-09-18T15:56:44;94803.75;;;22.27;72.01
71956;BME280;59829;50.562;6.258;2023-09-18T16:06:44;94813.34;;;22.63;72.84
71956;BME280;59829;50.562;6.258;2023-09-18T16:16:46;94812.19;;;23.42;74.50
71956;BME280;59829;50.562;6.258;2023-09-18T16:26:46;94810.91;;;23.22;68.56
71956;BME280;59829;50.562;6.258;2023-09-18T16:36:47;94827.75;;;22.66;66.36
71956;BME280;59829;50.562;6.258;2023-09-18T16:47:06;94846.28;;;22.09;66.25
71956;BME280;59829;50.562;6.258;2023-09-18T16:57:07;94835.19;;;21.71;67.19
71956;BME280;59829;50.562;6.258;2023-09-18T17:07:07;94833.03;;;21.43;67.79
71956;BME280;59829;50.562;6.258;2023-09-18T17:17:10;94825.56;;;21.21;68.49
71956;BME280;59829;50.562;6.258;2023-09-18T17:27:11;94837.28;;;20.99;68.67
71956;BME280;59829;50.562;6.258;2023-09-18T17:37:11;94966.06;;;20.18;68.25
71956;BME280;59829;50.562;6.258;2023-09-18T17:47:12;94911.09;;;19.49;69.96
71956;BME280;59829;50.562;6.258;2023-09-18T17:57:12;94909.06;;;19.31;72.23
71956;BME280;59829;50.562;6.258;2023-09-18T18:07:13;94922.81;;;19.25;73.67
71956;BME280;59829;50.562;6.258;2023-09-18T18:17:13;94904.03;;;19.23;75.19
71956;BME280;59829;50.562;6.258;2023-09-18T18:27:13;94892.25;;;19.14;76.41
71956;BME280;59829;50.562;6.258;2023-09-18T18:37:14;94910.41;;;19.01;77.49
71956;BME280;59829;50.562;6.258;2023-09-18T18:47:14;94939.47;;;18.76;78.16
71956;BME280;59829;50.562;6.258;2023-09-18T18:57:16;94937.53;;;18.57;79.11
71956;BME280;59829;50.562;6.258;2023-09-18T19:07:16;94949.66;;;18.43;80.59
71956;BME280;59829;50.562;6.258;2023-09-18T19:17:19;94954.25;;;18.48;81.83
71956;BME280;59829;50.562;6.258;2023-09-18T19:27:20;94950.06;;;18.47;83.01
71956;BME280;59829;50.562;6.258;2023-09-18T19:37:20;94971.22;;;18.50;84.09
71956;BME280;59829;50.562;6.258;2023-09-18T19:47:20;94967.63;;;18.51;85.11
71956;BME280;59829;50.562;6.258;2023-09-18T19:57:21;94965.25;;;18.50;86.01
71956;BME280;59829;50.562;6.258;2023-09-18T20:07:21;94982.78;;;18.48;86.53
71956;BME280;59829;50.562;6.258;2023-09-18T20:17:21;94989.34;;;18.44;87.27
71956;BME280;59829;50.562;6.258;2023-09-18T20:27:22;95001.03;;;18.33;88.54
71956;BME280;59829;50.562;6.258;2023-09-18T20:37:22;95010.38;;;18.27;89.36
71956;BME280;59829;50.562;6.258;2023-09-18T20:47:22;95030.72;;;18.24;90.10
71956;BME280;59829;50.562;6.258;2023-09-18T20:57:23;95041.00;;;18.17;90.82
71956;BME280;59829;50.562;6.258;2023-09-18T21:07:24;95039.44;;;17.95;90.82
71956;BME280;59829;50.562;6.258;2023-09-18T21:17:25;95053.47;;;17.86;91.14
71956;BME280;59829;50.562;6.258;2023-09-18T21:27:25;95075.56;;;17.82;91.45
71956;BME280;59829;50.562;6.258;2023-09-18T21:37:25;95082.78;;;17.86;91.58
71956;BME280;59829;50.562;6.258;2023-09-18T21:47:25;95099.28;;;17.64;91.20
71956;BME280;59829;50.562;6.258;2023-09-18T21:57:26;95103.50;;;17.50;91.09
71956;BME280;59829;50.562;6.258;2023-09-18T22:07:26;95119.22;;;17.34;90.81
71956;BME280;59829;50.562;6.258;2023-09-18T22:17:26;95129.06;;;17.24;90.67
71956;BME280;59829;50.562;6.258;2023-09-18T22:27:27;95139.25;;;17.10;90.97
71956;BME280;59829;50.562;6.258;2023-09-18T22:37:27;95146.66;;;17.13;90.96
71956;BME280;59829;50.562;6.258;2023-09-18T22:58:07;95147.28;;;16.86;90.33
71956;BME280;59829;50.562;6.258;2023-09-18T23:08:10;95163.13;;;16.83;90.84
71956;BME280;59829;50.562;6.258;2023-09-18T23:18:10;95167.47;;;16.82;91.14
71956;BME280;59829;50.562;6.258;2023-09-18T23:28:11;95185.63;;;16.97;90.99
71956;BME280;59829;50.562;6.258;2023-09-18T23:38:12;95186.78;;;16.95;90.85
71956;BME280;59829;50.562;6.258;2023-09-18T23:48:14;95189.09;;;16.90;90.62
71956;BME280;59829;50.562;6.258;2023-09-18T23:58:18;95199.00;;;16.86;90.64
